Cedar Hill, New Mexico
Current Conditions -  °F | °C
As of 4:53 PM on Wednesday 22 Oct 2014 (Local Time) from KFMN Reporting Station
Clear Clear  
Wind Chill: 71°   Ceiling: Unl
Heat Index: 71°   Visibility: 10mi
Dew Point: 35°   Wind: 9mph
Humidity: 27%   Direction: 310°NW
Pressure: 30.13"   Gusts: NA
Location:  36.928°N, 107.996°W
Report Text: KFMN 222253Z 31008KT 10SM CLR 22/02 A3013 RMK AO2 SLP167 T02170017
Loading
Personal Weather Stations






























Interactive Weather Map
Tropical Storm Tracking
New forecast layout! Learn more

10-Day Weather Forecast

Advertisements
Track Severe Weather on mobile